createdAt,value
2023-05-05T00:01:58.006Z,5.30
2023-05-05T00:04:26.506Z,5.00
2023-05-05T00:06:55.082Z,5.38
2023-05-05T00:09:23.738Z,5.90
2023-05-05T00:11:52.348Z,6.22
2023-05-05T00:14:20.700Z,6.00
2023-05-05T00:16:49.314Z,6.68
2023-05-05T00:19:17.669Z,6.93
2023-05-05T00:21:46.258Z,6.88
2023-05-05T00:24:14.388Z,6.68
2023-05-05T00:26:42.782Z,7.47
2023-05-05T00:29:10.956Z,6.60
2023-05-05T00:31:39.502Z,7.47
2023-05-05T00:34:07.652Z,7.75
2023-05-05T00:36:36.102Z,7.43
2023-05-05T00:39:04.073Z,7.30
2023-05-05T00:41:32.502Z,7.18
2023-05-05T00:44:00.586Z,7.07
2023-05-05T00:46:31.058Z,8.13
2023-05-05T00:48:59.947Z,7.95
2023-05-05T00:51:29.263Z,8.18
2023-05-05T00:53:57.518Z,8.10
2023-05-05T00:56:27.607Z,8.15
2023-05-05T00:58:55.724Z,10.07
2023-05-05T01:01:24.309Z,8.15
2023-05-05T01:03:52.566Z,7.70
2023-05-05T01:06:58.974Z,7.90
2023-05-05T01:09:29.922Z,7.88
2023-05-05T01:12:22.518Z,7.57
2023-05-05T01:15:29.311Z,8.30
2023-05-05T01:18:04.635Z,7.90
2023-05-05T01:21:02.394Z,8.73
2023-05-05T01:24:00.752Z,8.48
2023-05-05T01:26:55.989Z,7.97
2023-05-05T01:30:09.497Z,7.85
2023-05-05T01:32:47.672Z,8.27
2023-05-05T01:35:21.651Z,7.90
2023-05-05T01:37:59.518Z,8.18
2023-05-05T01:40:32.653Z,8.25
2023-05-05T01:43:05.087Z,7.83
2023-05-05T01:45:38.609Z,8.97
2023-05-05T01:48:08.608Z,8.30
2023-05-05T01:50:37.764Z,8.48
2023-05-05T01:53:07.685Z,7.90
2023-05-05T01:55:37.510Z,8.45
2023-05-05T01:58:08.368Z,8.00
2023-05-05T02:00:37.639Z,8.23
2023-05-05T02:03:08.299Z,8.95
2023-05-05T02:05:40.065Z,7.40
2023-05-05T02:08:10.064Z,8.00
2023-05-05T02:10:43.089Z,8.30
2023-05-05T02:13:13.458Z,7.22
2023-05-05T02:15:44.459Z,7.72
2023-05-05T02:18:13.298Z,7.50
2023-05-05T02:20:41.873Z,7.38
2023-05-05T02:23:10.233Z,7.63
2023-05-05T02:25:45.635Z,8.20
2023-05-05T02:28:33.768Z,7.93
2023-05-05T02:31:06.232Z,8.85
2023-05-05T02:33:37.253Z,7.85
2023-05-05T02:36:28.614Z,8.20
2023-05-05T02:39:13.097Z,7.90
2023-05-05T02:41:45.456Z,7.57
2023-05-05T02:44:25.263Z,8.70
2023-05-05T02:46:55.203Z,8.32
2023-05-05T02:49:24.846Z,8.32
2023-05-05T02:51:58.738Z,7.00
2023-05-05T02:54:31.972Z,8.40
2023-05-05T02:57:02.044Z,8.55
2023-05-05T02:59:47.644Z,8.35
2023-05-05T03:02:25.129Z,7.97
2023-05-05T03:05:17.591Z,9.48
2023-05-05T03:07:59.941Z,8.48
2023-05-05T03:10:35.139Z,8.80
2023-05-05T03:13:10.249Z,8.55
2023-05-05T03:15:48.645Z,7.95
2023-05-05T03:18:22.816Z,9.77
2023-05-05T03:20:57.683Z,8.70
2023-05-05T03:23:26.650Z,8.65
2023-05-05T03:26:00.128Z,8.10
2023-05-05T03:28:39.607Z,9.10
2023-05-05T03:31:22.318Z,9.20
2023-05-05T03:33:55.452Z,9.98
2023-05-05T03:36:29.424Z,9.18
2023-05-05T03:39:00.249Z,8.88
2023-05-05T03:41:32.079Z,8.52
2023-05-05T03:44:01.332Z,8.63
2023-05-05T03:46:29.404Z,8.75
2023-05-05T03:48:57.801Z,8.98
2023-05-05T03:51:28.443Z,8.68
2023-05-05T03:53:57.852Z,10.48
2023-05-05T03:56:25.931Z,9.15
2023-05-05T03:58:54.289Z,9.77
2023-05-05T04:01:22.342Z,11.95
2023-05-05T04:03:50.895Z,9.65
2023-05-05T04:06:18.936Z,9.50
2023-05-05T04:08:47.788Z,10.60
2023-05-05T04:11:16.487Z,8.75
2023-05-05T04:13:44.967Z,10.32
2023-05-05T04:16:13.495Z,9.32
2023-05-05T04:18:42.015Z,9.93
2023-05-05T04:21:10.718Z,11.07
2023-05-05T04:23:40.756Z,10.20
2023-05-05T04:26:08.824Z,9.45
2023-05-05T04:28:37.776Z,10.38
2023-05-05T04:31:06.280Z,9.55
2023-05-05T04:33:38.220Z,9.52
2023-05-05T04:36:07.210Z,10.38
2023-05-05T04:38:35.787Z,9.70
2023-05-05T04:41:06.702Z,9.73
2023-05-05T04:43:36.516Z,9.25
2023-05-05T04:46:04.708Z,9.50
2023-05-05T04:48:38.165Z,9.88
2023-05-05T04:51:07.164Z,9.73
2023-05-05T04:53:36.322Z,10.20
2023-05-05T04:56:04.513Z,9.73
2023-05-05T04:58:33.475Z,9.63
2023-05-05T05:01:01.442Z,9.48
2023-05-05T05:03:29.928Z,9.80
2023-05-05T05:05:58.003Z,9.88
2023-05-05T05:08:26.493Z,10.50
2023-05-05T05:10:54.461Z,10.43
2023-05-05T05:13:22.995Z,9.70
2023-05-05T05:15:52.204Z,10.00
2023-05-05T05:18:20.541Z,9.52
2023-05-05T05:20:50.391Z,10.23
2023-05-05T05:23:19.947Z,10.38
2023-05-05T05:25:48.494Z,10.00
2023-05-05T05:28:19.728Z,10.55
2023-05-05T05:30:52.948Z,9.77
2023-05-05T05:33:21.690Z,10.20
2023-05-05T05:35:50.583Z,10.57
2023-05-05T05:38:21.417Z,9.57
2023-05-05T05:40:52.431Z,9.85
2023-05-05T05:43:21.451Z,10.13
2023-05-05T05:45:49.813Z,9.38
2023-05-05T05:48:18.610Z,12.75
2023-05-05T05:50:46.759Z,9.43
2023-05-05T05:53:15.633Z,9.43
2023-05-05T05:55:46.688Z,9.30
2023-05-05T05:58:17.620Z,9.48
2023-05-05T06:00:46.870Z,8.75
2023-05-05T06:03:15.513Z,7.82
2023-05-05T06:05:46.622Z,9.43
2023-05-05T06:08:16.122Z,9.13
2023-05-05T06:10:49.010Z,9.37
2023-05-05T06:13:20.571Z,9.55
2023-05-05T06:15:51.379Z,9.93
2023-05-05T06:18:19.909Z,10.15
2023-05-05T06:20:51.260Z,8.75
2023-05-05T06:23:21.480Z,9.40
2023-05-05T06:25:55.839Z,9.05
2023-05-05T06:28:24.275Z,8.38
2023-05-05T06:30:52.885Z,9.73
2023-05-05T06:33:21.250Z,9.85
2023-05-05T06:35:49.745Z,9.75
2023-05-05T06:38:18.082Z,9.40
2023-05-05T06:40:49.728Z,8.95
2023-05-05T06:43:18.518Z,8.25
2023-05-05T06:45:53.827Z,10.63
2023-05-05T06:48:22.419Z,10.63
2023-05-05T06:50:50.450Z,10.35
2023-05-05T06:53:18.821Z,11.45
2023-05-05T06:55:47.664Z,11.85
2023-05-05T06:58:16.025Z,11.70
2023-05-05T07:00:44.145Z,12.13
2023-05-05T07:03:12.607Z,12.63
2023-05-05T07:05:40.661Z,11.55
2023-05-05T07:08:11.560Z,11.95
2023-05-05T07:10:39.698Z,12.57
2023-05-05T07:13:08.672Z,10.90
2023-05-05T07:15:36.818Z,10.25
2023-05-05T07:18:05.376Z,9.48
2023-05-05T07:20:33.484Z,10.18
2023-05-05T07:23:01.777Z,10.95
2023-05-05T07:25:29.763Z,11.43
2023-05-05T07:27:58.633Z,10.35
2023-05-05T07:30:26.867Z,11.90
2023-05-05T07:32:55.561Z,10.93
2023-05-05T07:35:23.824Z,10.85
2023-05-05T07:37:52.323Z,10.25
2023-05-05T07:40:20.775Z,11.10
2023-05-05T07:42:49.090Z,10.43
2023-05-05T07:45:17.074Z,10.98
2023-05-05T07:47:45.464Z,10.65
2023-05-05T07:50:13.719Z,11.25
2023-05-05T07:52:48.385Z,9.70
2023-05-05T07:55:19.899Z,10.15
2023-05-05T07:57:49.845Z,9.35
2023-05-05T08:00:19.691Z,10.15
2023-05-05T08:02:48.823Z,10.07
2023-05-05T08:05:17.098Z,11.45
2023-05-05T08:07:45.655Z,10.50
2023-05-05T08:10:13.808Z,10.07
2023-05-05T08:12:42.757Z,10.32
2023-05-05T08:15:11.204Z,9.02
2023-05-05T08:17:48.163Z,10.70
2023-05-05T08:20:18.190Z,10.20
2023-05-05T08:22:48.422Z,9.43
2023-05-05T08:25:16.458Z,10.13
2023-05-05T08:27:45.053Z,9.45
2023-05-05T08:30:13.576Z,8.40
2023-05-05T08:32:41.976Z,8.40
2023-05-05T08:35:10.399Z,9.73
2023-05-05T08:37:38.958Z,11.10
2023-05-05T08:40:07.682Z,10.85
2023-05-05T08:42:38.487Z,10.20
2023-05-05T08:45:09.474Z,9.23
2023-05-05T08:47:39.390Z,10.43
2023-05-05T08:50:11.180Z,9.32
2023-05-05T08:52:44.674Z,7.90
2023-05-05T08:58:05.405Z,7.55
2023-05-05T09:00:34.024Z,9.02
2023-05-05T09:03:02.792Z,8.32
2023-05-05T09:05:30.887Z,6.78
2023-05-05T09:07:59.258Z,6.28
2023-05-05T09:10:31.514Z,6.50
2023-05-05T09:13:01.270Z,6.60
2023-05-05T09:15:29.243Z,5.03
2023-05-05T09:18:00.824Z,5.25
2023-05-05T09:20:37.208Z,4.32
2023-05-05T09:23:19.870Z,3.70
2023-05-05T09:26:02.782Z,4.28
2023-05-05T09:28:32.080Z,5.05
2023-05-05T09:31:14.252Z,5.78
2023-05-05T09:33:43.514Z,4.82
2023-05-05T09:36:12.449Z,3.75
2023-05-05T09:38:40.748Z,3.47
2023-05-05T09:41:08.699Z,4.60
2023-05-05T09:43:52.133Z,3.97
2023-05-05T09:46:20.280Z,4.72
2023-05-05T09:48:48.633Z,5.07
2023-05-05T09:51:16.754Z,5.43
2023-05-05T09:53:45.289Z,5.22
2023-05-05T09:56:13.257Z,4.80
2023-05-05T09:58:42.519Z,6.35
2023-05-05T10:01:23.092Z,5.35
2023-05-05T10:03:54.917Z,5.82
2023-05-05T10:06:41.326Z,6.03
2023-05-05T10:09:10.007Z,5.47
2023-05-05T10:11:40.045Z,7.53
2023-05-05T10:14:08.982Z,5.55
2023-05-05T10:16:43.349Z,5.22
2023-05-05T10:19:14.506Z,5.55
2023-05-05T10:21:49.719Z,5.53
2023-05-05T10:24:24.985Z,4.95
2023-05-05T10:26:56.295Z,5.82
2023-05-05T10:29:37.040Z,5.80
2023-05-05T10:32:30.181Z,5.60
2023-05-05T10:35:01.814Z,5.72
2023-05-05T10:37:30.814Z,5.82
2023-05-05T10:39:59.502Z,4.88
2023-05-05T10:42:28.010Z,5.10
2023-05-05T10:44:56.725Z,5.75
2023-05-05T10:47:26.016Z,5.40
2023-05-05T10:50:07.811Z,5.32
2023-05-05T10:52:44.633Z,6.25
2023-05-05T10:55:24.663Z,5.63
2023-05-05T10:57:54.304Z,5.90
2023-05-05T11:00:41.260Z,5.82
2023-05-05T11:03:18.459Z,4.70
2023-05-05T11:06:04.913Z,5.35
2023-05-05T11:08:45.809Z,5.10
2023-05-05T11:11:14.457Z,5.60
2023-05-05T11:13:42.658Z,4.72
2023-05-05T11:16:44.967Z,5.32
2023-05-05T11:19:43.697Z,4.88
2023-05-05T11:22:12.434Z,5.13
2023-05-05T11:24:40.906Z,4.78
2023-05-05T11:27:10.451Z,4.88
2023-05-05T11:30:07.588Z,5.05
2023-05-05T11:32:36.405Z,4.97
2023-05-05T11:35:06.408Z,4.53
2023-05-05T11:37:37.488Z,4.55
2023-05-05T11:40:32.820Z,5.70
2023-05-05T11:43:07.669Z,5.05
2023-05-05T11:45:36.140Z,5.05
2023-05-05T11:48:30.100Z,4.82
2023-05-05T11:50:58.367Z,4.95
2023-05-05T11:53:27.723Z,5.05
2023-05-05T11:56:09.796Z,4.50
2023-05-05T11:58:38.489Z,5.22
2023-05-05T12:01:09.547Z,3.80
2023-05-05T12:03:39.451Z,4.07
2023-05-05T12:06:08.365Z,4.85
2023-05-05T12:08:41.124Z,4.28
2023-05-05T12:11:10.854Z,4.20
2023-05-05T12:13:39.061Z,4.25
2023-05-05T12:16:11.270Z,3.75
2023-05-05T12:18:40.198Z,4.25
2023-05-05T12:21:21.075Z,3.83
2023-05-05T12:23:49.291Z,3.50
2023-05-05T12:26:28.260Z,4.20
2023-05-05T12:29:00.583Z,4.55
2023-05-05T12:31:39.660Z,4.03
2023-05-05T12:34:10.053Z,4.00
2023-05-05T12:36:38.638Z,5.68
2023-05-05T12:39:06.952Z,5.00
2023-05-05T12:41:35.244Z,4.40
2023-05-05T12:44:04.219Z,4.60
2023-05-05T12:46:48.916Z,4.00
2023-05-05T12:49:17.802Z,3.92
2023-05-05T12:51:56.736Z,4.13
2023-05-05T12:54:25.289Z,3.55
2023-05-05T12:56:53.227Z,4.88
2023-05-05T12:59:21.745Z,4.15
2023-05-05T13:01:54.177Z,4.32
2023-05-05T13:04:24.349Z,4.70
2023-05-05T13:07:18.111Z,5.63
2023-05-05T13:09:48.249Z,5.90
2023-05-05T13:12:18.105Z,4.40
2023-05-05T13:14:47.250Z,3.95
2023-05-05T13:17:15.285Z,4.10
2023-05-05T13:19:46.632Z,4.68
2023-05-05T13:22:14.719Z,4.10
2023-05-05T13:24:51.706Z,3.55
2023-05-05T13:27:20.842Z,3.90
2023-05-05T13:29:49.183Z,3.92
2023-05-05T13:32:17.066Z,4.50
2023-05-05T13:34:45.307Z,4.60
2023-05-05T13:37:13.123Z,4.55
2023-05-05T13:39:41.415Z,4.97
2023-05-05T13:42:09.383Z,5.05
2023-05-05T13:44:37.614Z,5.32
2023-05-05T13:47:05.797Z,5.47
2023-05-05T13:49:35.391Z,4.63
2023-05-05T13:52:03.421Z,4.78
2023-05-05T13:54:31.868Z,4.68
2023-05-05T13:57:00.225Z,4.35
2023-05-05T13:59:28.738Z,4.70
2023-05-05T14:01:56.619Z,4.07
2023-05-05T14:04:25.230Z,4.03
2023-05-05T14:06:54.206Z,4.15
2023-05-05T14:09:22.555Z,4.10
2023-05-05T14:11:50.427Z,4.35
2023-05-05T14:14:19.912Z,4.30
2023-05-05T14:16:49.993Z,4.30
2023-05-05T14:19:18.874Z,3.40
2023-05-05T14:21:46.833Z,3.90
2023-05-05T14:24:15.161Z,4.00
2023-05-05T14:26:43.085Z,4.22
2023-05-05T14:29:11.397Z,3.75
2023-05-05T14:31:39.312Z,3.28
2023-05-05T14:34:07.585Z,3.08
2023-05-05T14:36:35.517Z,3.38
2023-05-05T14:39:03.873Z,3.92
2023-05-05T14:41:31.785Z,3.35
2023-05-05T14:43:59.997Z,2.95
2023-05-05T14:46:28.122Z,2.92
2023-05-05T14:48:56.442Z,2.90
2023-05-05T14:51:25.128Z,3.25
2023-05-05T14:53:53.020Z,3.45
2023-05-05T14:56:24.772Z,2.35
2023-05-05T14:58:53.191Z,2.63
2023-05-05T15:01:21.471Z,2.90
2023-05-05T15:03:49.498Z,3.10
2023-05-05T15:06:17.726Z,3.65
2023-05-05T15:08:45.695Z,3.47
2023-05-05T15:11:14.030Z,3.53
2023-05-05T15:13:41.944Z,3.85
2023-05-05T15:16:10.568Z,3.47
2023-05-05T15:18:38.589Z,3.35
2023-05-05T15:21:07.315Z,3.97
2023-05-05T15:23:35.266Z,3.17
2023-05-05T15:26:04.890Z,3.22
2023-05-05T15:28:32.770Z,3.80
2023-05-05T15:31:02.349Z,2.78
2023-05-05T15:33:31.257Z,3.55
2023-05-05T15:36:00.591Z,3.22
2023-05-05T15:38:30.012Z,3.30
2023-05-05T15:40:58.326Z,3.60
2023-05-05T15:43:26.295Z,2.83
2023-05-05T15:45:54.740Z,3.10
2023-05-05T15:48:22.636Z,2.75
2023-05-05T15:50:50.791Z,2.70
2023-05-05T15:53:18.718Z,2.55
2023-05-05T15:55:47.018Z,3.00
2023-05-05T15:58:14.960Z,3.78
2023-05-05T16:00:43.204Z,3.72
2023-05-05T16:03:11.175Z,4.43
2023-05-05T16:05:39.422Z,4.30
2023-05-05T16:08:10.357Z,3.80
2023-05-05T16:10:38.727Z,3.42
2023-05-05T16:13:07.048Z,4.47
2023-05-05T16:15:36.054Z,4.13
2023-05-05T16:18:04.143Z,3.55
2023-05-05T16:20:32.498Z,3.38
2023-05-05T16:23:00.547Z,4.05
2023-05-05T16:25:28.843Z,9.32
2023-05-05T16:27:57.845Z,3.72
2023-05-05T16:30:26.238Z,4.20
2023-05-05T16:32:54.845Z,3.55
2023-05-05T16:35:23.331Z,4.63
2023-05-05T16:37:51.408Z,4.47
2023-05-05T16:40:19.920Z,5.10
2023-05-05T16:42:47.759Z,6.18
2023-05-05T16:45:16.245Z,6.63
2023-05-05T16:47:44.121Z,5.75
2023-05-05T16:50:12.726Z,4.70
2023-05-05T16:52:40.791Z,4.70
2023-05-05T16:55:09.716Z,5.38
2023-05-05T16:57:37.792Z,4.20
2023-05-05T17:00:07.560Z,5.07
2023-05-05T17:02:36.154Z,5.18
2023-05-05T17:05:05.222Z,4.20
2023-05-05T17:07:33.199Z,4.50
2023-05-05T17:10:01.902Z,3.83
2023-05-05T17:12:29.808Z,3.72
2023-05-05T17:14:58.001Z,4.07
2023-05-05T17:17:26.093Z,3.97
2023-05-05T17:19:54.396Z,4.10
2023-05-05T17:22:22.447Z,9.15
2023-05-05T17:24:51.143Z,7.63
2023-05-05T17:27:19.178Z,4.10
2023-05-05T17:29:47.330Z,4.05
2023-05-05T17:32:15.239Z,6.28
2023-05-05T17:34:43.506Z,14.40
2023-05-05T17:37:11.560Z,4.22
2023-05-05T17:39:39.772Z,3.15
2023-05-05T17:42:07.801Z,10.93
2023-05-05T17:44:35.951Z,2.97
2023-05-05T17:47:04.153Z,2.97
2023-05-05T17:49:32.644Z,2.80
2023-05-05T17:52:00.855Z,2.60
2023-05-05T17:54:29.179Z,2.80
2023-05-05T17:56:57.594Z,3.20
2023-05-05T17:59:26.396Z,2.97
2023-05-05T18:01:54.293Z,3.03
2023-05-05T18:04:22.533Z,5.10
2023-05-05T18:06:50.465Z,3.03
2023-05-05T18:09:20.853Z,3.20
2023-05-05T18:11:49.124Z,3.20
2023-05-05T18:14:18.752Z,2.88
2023-05-05T18:16:49.962Z,3.30
2023-05-05T18:19:23.454Z,2.83
2023-05-05T18:21:54.657Z,3.15
2023-05-05T18:24:23.322Z,3.72
2023-05-05T18:26:52.854Z,3.60
2023-05-05T18:29:22.362Z,2.92
2023-05-05T18:31:53.211Z,3.75
2023-05-05T18:34:22.009Z,3.70
2023-05-05T18:36:51.572Z,3.35
2023-05-05T18:39:20.444Z,2.90
2023-05-05T18:41:48.373Z,3.58
2023-05-05T18:44:16.860Z,3.20
2023-05-05T18:46:47.059Z,3.15
2023-05-05T18:49:15.741Z,2.90
2023-05-05T18:51:44.038Z,3.42
2023-05-05T18:54:12.534Z,3.28
2023-05-05T18:56:40.457Z,3.38
2023-05-05T18:59:10.057Z,3.17
2023-05-05T19:01:38.209Z,3.72
2023-05-05T19:04:15.609Z,3.53
2023-05-05T19:06:52.526Z,3.50
2023-05-05T19:09:21.070Z,4.00
2023-05-05T19:11:49.275Z,3.40
2023-05-05T19:14:18.726Z,4.00
2023-05-05T19:16:47.943Z,4.45
2023-05-05T19:19:18.139Z,4.53
2023-05-05T19:21:47.271Z,4.85
2023-05-05T19:24:16.801Z,4.28
2023-05-05T19:26:44.981Z,4.72
2023-05-05T19:29:14.296Z,4.90
2023-05-05T19:31:43.498Z,4.30
2023-05-05T19:34:13.170Z,4.43
2023-05-05T19:36:42.256Z,6.10
2023-05-05T19:39:13.694Z,5.15
2023-05-05T19:41:45.597Z,6.05
2023-05-05T19:44:15.266Z,5.55
2023-05-05T19:46:44.504Z,5.32
2023-05-05T19:49:14.046Z,6.20
2023-05-05T19:51:42.919Z,5.65
2023-05-05T19:54:11.844Z,5.63
2023-05-05T19:56:40.605Z,6.20
2023-05-05T19:59:09.463Z,5.53
2023-05-05T20:01:37.465Z,5.97
2023-05-05T20:04:05.811Z,5.22
2023-05-05T20:06:33.978Z,5.35
2023-05-05T20:09:02.479Z,5.60
2023-05-05T20:11:30.674Z,6.28
2023-05-05T20:13:59.489Z,5.88
2023-05-05T20:16:27.609Z,5.68
2023-05-05T20:18:56.322Z,5.03
2023-05-05T20:21:24.303Z,5.43
2023-05-05T20:23:54.928Z,5.38
2023-05-05T20:26:24.748Z,4.13
2023-05-05T20:28:53.249Z,4.10
2023-05-05T20:31:21.295Z,3.83
2023-05-05T20:33:50.059Z,3.63
2023-05-05T20:36:18.710Z,3.28
2023-05-05T20:38:47.056Z,3.63
2023-05-05T20:41:15.131Z,4.07
2023-05-05T20:43:43.666Z,4.25
2023-05-05T20:46:13.032Z,4.57
2023-05-05T20:48:42.925Z,3.75
2023-05-05T20:51:11.530Z,4.40
2023-05-05T20:53:40.000Z,5.07
2023-05-05T20:56:08.952Z,3.45
2023-05-05T20:58:37.949Z,3.95
2023-05-05T21:01:06.275Z,3.28
2023-05-05T21:03:36.618Z,3.67
2023-05-05T21:06:04.706Z,3.63
2023-05-05T21:08:33.176Z,3.78
2023-05-05T21:11:01.130Z,3.47
2023-05-05T21:13:29.505Z,3.35
2023-05-05T21:15:57.520Z,3.83
2023-05-05T21:18:27.906Z,6.05
2023-05-05T21:20:56.459Z,3.75
2023-05-05T21:23:24.967Z,3.75
2023-05-05T21:25:52.878Z,4.03
2023-05-05T21:28:21.242Z,3.50
2023-05-05T21:31:10.346Z,3.70
2023-05-05T21:33:40.172Z,3.35
2023-05-05T21:36:08.490Z,3.83
2023-05-05T21:38:36.849Z,3.47
2023-05-05T21:41:04.805Z,3.55
2023-05-05T21:43:33.470Z,4.15
2023-05-05T21:46:05.605Z,3.95
2023-05-05T21:48:34.165Z,4.03
2023-05-05T21:51:02.147Z,3.67
2023-05-05T21:53:31.100Z,4.10
2023-05-05T21:55:59.244Z,4.43
2023-05-05T21:58:27.836Z,4.50
2023-05-05T22:00:55.848Z,4.60
2023-05-05T22:03:24.446Z,4.68
2023-05-05T22:05:52.599Z,4.47
2023-05-05T22:08:20.951Z,5.10
2023-05-05T22:10:48.868Z,5.13
2023-05-05T22:13:17.403Z,4.80
2023-05-05T22:15:47.397Z,5.43
2023-05-05T22:18:16.394Z,5.10
2023-05-05T22:20:44.559Z,5.38
2023-05-05T22:23:14.438Z,5.43
2023-05-05T22:25:42.477Z,5.43
2023-05-05T22:28:11.761Z,6.03
2023-05-05T22:30:39.802Z,5.30
2023-05-05T22:33:08.260Z,6.03
2023-05-05T22:35:37.591Z,5.10
2023-05-05T22:38:06.636Z,4.75
2023-05-05T22:40:35.668Z,4.65
2023-05-05T22:43:04.094Z,5.00
2023-05-05T22:45:32.049Z,4.88
2023-05-05T22:48:01.029Z,4.45
2023-05-05T22:50:29.181Z,4.80
2023-05-05T22:52:57.489Z,4.78
2023-05-05T22:55:25.474Z,5.53
2023-05-05T22:57:53.982Z,4.75
2023-05-05T23:00:21.941Z,4.85
2023-05-05T23:02:50.347Z,6.93
2023-05-05T23:05:18.328Z,5.63
2023-05-05T23:07:46.626Z,5.18
2023-05-05T23:10:14.588Z,5.60
2023-05-05T23:12:43.203Z,5.03
2023-05-05T23:15:11.665Z,5.20
2023-05-05T23:17:40.293Z,5.20
2023-05-05T23:20:12.011Z,5.47
2023-05-05T23:22:40.290Z,4.88
2023-05-05T23:25:08.854Z,5.57
2023-05-05T23:27:40.377Z,5.78
2023-05-05T23:30:09.485Z,4.63
2023-05-05T23:32:38.056Z,6.10
2023-05-05T23:35:06.522Z,5.80
2023-05-05T23:37:34.794Z,5.72
2023-05-05T23:40:02.762Z,5.97
2023-05-05T23:42:30.925Z,5.53
2023-05-05T23:44:58.877Z,5.50
2023-05-05T23:47:27.206Z,5.80
2023-05-05T23:49:55.174Z,5.78
2023-05-05T23:52:23.702Z,5.15
2023-05-05T23:54:51.639Z,5.53
2023-05-05T23:57:19.860Z,5.15
2023-05-05T23:59:47.941Z,5.40
